createdAt,value
2018-12-09T00:01:08.059Z,43.17
2018-12-09T00:03:41.762Z,46.20
2018-12-09T00:06:14.450Z,42.50
2018-12-09T00:08:47.071Z,49.83
2018-12-09T00:11:20.277Z,44.13
2018-12-09T00:13:52.925Z,44.05
2018-12-09T00:16:25.922Z,40.97
2018-12-09T00:18:58.422Z,48.43
2018-12-09T00:21:30.806Z,49.77
2018-12-09T00:24:03.095Z,49.20
2018-12-09T00:26:35.984Z,50.80
2018-12-09T00:29:08.847Z,50.30
2018-12-09T00:31:41.220Z,52.50
2018-12-09T00:34:14.015Z,63.05
2018-12-09T00:36:51.016Z,61.23
2018-12-09T00:39:23.530Z,63.43
2018-12-09T00:41:56.377Z,59.43
2018-12-09T00:44:29.177Z,51.33
2018-12-09T00:47:01.500Z,55.73
2018-12-09T00:49:38.621Z,55.67
2018-12-09T00:52:11.310Z,55.80
2018-12-09T00:54:43.568Z,58.53
2018-12-09T00:57:16.643Z,65.30
2018-12-09T00:59:48.908Z,67.83
2018-12-09T01:02:21.219Z,63.80
2018-12-09T01:04:53.567Z,69.23
2018-12-09T01:07:26.554Z,57.80
2018-12-09T01:09:58.885Z,65.47
2018-12-09T01:12:31.342Z,57.53
2018-12-09T01:15:03.693Z,60.30
2018-12-09T01:17:37.092Z,63.70
2018-12-09T01:20:10.878Z,60.60
2018-12-09T01:22:43.292Z,66.87
2018-12-09T01:25:15.568Z,68.70
2018-12-09T01:27:47.913Z,64.73
2018-12-09T01:30:20.749Z,71.57
2018-12-09T01:32:53.609Z,73.00
2018-12-09T01:35:26.746Z,91.37
2018-12-09T01:38:04.393Z,79.40
2018-12-09T01:40:41.157Z,97.27
2018-12-09T01:43:13.866Z,99.73
2018-12-09T01:45:46.199Z,100.00
2018-12-09T01:48:18.550Z,105.27
2018-12-09T01:50:51.273Z,102.10
2018-12-09T01:53:37.203Z,86.53
2018-12-09T01:56:09.930Z,97.10
2018-12-09T01:58:42.560Z,95.30
2018-12-09T02:01:15.022Z,132.57
2018-12-09T02:03:47.861Z,133.67
2018-12-09T02:06:20.261Z,93.17
2018-12-09T02:08:53.434Z,78.37
2018-12-09T02:11:26.453Z,73.50
2018-12-09T02:13:59.074Z,71.03
2018-12-09T02:16:32.132Z,67.20
2018-12-09T02:19:44.045Z,69.50
2018-12-09T02:22:18.476Z,65.20
2018-12-09T02:24:57.126Z,72.97
2018-12-09T02:27:30.021Z,70.90
2018-12-09T02:30:07.539Z,63.27
2018-12-09T02:32:40.752Z,68.87
2018-12-09T02:35:13.716Z,64.10
2018-12-09T02:37:46.526Z,71.50
2018-12-09T02:40:19.440Z,73.40
2018-12-09T02:42:52.225Z,75.03
2018-12-09T02:45:25.178Z,76.40
2018-12-09T02:47:58.192Z,81.33
2018-12-09T02:50:31.380Z,78.65
2018-12-09T02:53:04.233Z,80.60
2018-12-09T02:55:37.502Z,86.80
2018-12-09T02:58:09.965Z,84.93
2018-12-09T03:00:42.315Z,82.97
2018-12-09T03:03:14.738Z,84.17
2018-12-09T03:05:47.303Z,84.57
2018-12-09T03:08:19.699Z,89.07
2018-12-09T03:10:52.097Z,81.07
2018-12-09T03:13:24.818Z,74.47
2018-12-09T03:15:57.173Z,69.40
2018-12-09T03:18:29.891Z,62.17
2018-12-09T03:21:02.489Z,60.77
2018-12-09T03:23:35.670Z,47.30
2018-12-09T03:26:12.198Z,43.03
2018-12-09T03:28:45.238Z,43.00
2018-12-09T03:31:19.275Z,45.10
2018-12-09T03:33:52.170Z,38.60
2018-12-09T03:37:27.427Z,42.30
2018-12-09T03:40:00.796Z,37.10
2018-12-09T03:42:33.870Z,41.33
2018-12-09T03:45:06.405Z,40.00
2018-12-09T03:47:39.447Z,39.47
2018-12-09T03:50:12.833Z,41.60
2018-12-09T03:52:45.230Z,48.90
2018-12-09T03:55:18.325Z,52.03
2018-12-09T03:57:51.901Z,67.97
2018-12-09T04:00:31.613Z,66.93
2018-12-09T04:03:22.444Z,60.87
2018-12-09T04:05:55.422Z,49.13
2018-12-09T04:08:27.942Z,51.07
2018-12-09T04:11:00.387Z,43.00
2018-12-09T04:13:33.034Z,39.70
2018-12-09T04:16:05.603Z,38.93
2018-12-09T04:18:38.696Z,38.63
2018-12-09T04:21:11.102Z,41.60
2018-12-09T04:23:43.686Z,39.40
2018-12-09T04:26:20.010Z,38.33
2018-12-09T04:28:52.996Z,32.03
2018-12-09T04:31:25.900Z,31.57
2018-12-09T04:33:59.127Z,31.30
2018-12-09T04:36:32.001Z,31.23
2018-12-09T04:39:04.951Z,34.87
2018-12-09T04:41:38.080Z,29.83
2018-12-09T04:44:11.210Z,31.30
2018-12-09T04:46:44.033Z,29.67
2018-12-09T04:49:17.102Z,25.03
2018-12-09T04:51:58.177Z,26.30
2018-12-09T04:54:31.864Z,27.95
2018-12-09T04:57:04.469Z,25.43
2018-12-09T04:59:40.380Z,27.47
2018-12-09T05:02:12.880Z,29.80
2018-12-09T05:04:45.575Z,30.27
2018-12-09T05:07:18.485Z,28.30
2018-12-09T05:09:50.988Z,27.47
2018-12-09T05:12:23.784Z,27.83
2018-12-09T05:14:56.428Z,28.40
2018-12-09T05:17:29.709Z,28.95
2018-12-09T05:20:03.390Z,28.93
2018-12-09T05:22:36.314Z,29.47
2018-12-09T05:25:09.234Z,25.47
2018-12-09T05:27:42.259Z,25.82
2018-12-09T05:30:15.273Z,25.00
2018-12-09T05:32:48.215Z,25.53
2018-12-09T05:35:23.097Z,25.00
2018-12-09T05:37:56.030Z,27.73
2018-12-09T05:40:28.992Z,24.23
2018-12-09T05:43:02.246Z,23.17
2018-12-09T05:45:35.327Z,24.97
2018-12-09T05:48:08.161Z,24.13
2018-12-09T05:50:41.301Z,25.88
2018-12-09T05:53:14.167Z,25.53
2018-12-09T05:55:47.280Z,25.13
2018-12-09T05:58:22.708Z,23.60
2018-12-09T06:00:55.552Z,24.40
2018-12-09T06:03:28.408Z,22.00
2018-12-09T06:06:01.538Z,25.40
2018-12-09T06:08:35.344Z,26.23
2018-12-09T06:11:08.368Z,26.83
2018-12-09T06:13:41.117Z,28.27
2018-12-09T06:16:14.083Z,27.77
2018-12-09T06:18:46.611Z,23.30
2018-12-09T06:21:19.154Z,25.43
2018-12-09T06:23:52.119Z,27.30
2018-12-09T06:26:25.192Z,27.27
2018-12-09T06:28:57.915Z,23.87
2018-12-09T06:31:31.098Z,24.77
2018-12-09T06:34:03.997Z,25.15
2018-12-09T06:36:36.861Z,23.40
2018-12-09T06:39:10.671Z,27.33
2018-12-09T06:41:43.700Z,26.40
2018-12-09T06:44:16.310Z,25.40
2018-12-09T06:46:49.225Z,24.23
2018-12-09T06:49:22.404Z,26.10
2018-12-09T06:51:55.484Z,23.30
2018-12-09T06:54:28.206Z,23.07
2018-12-09T06:57:01.280Z,23.20
2018-12-09T06:59:34.531Z,23.77
2018-12-09T07:02:07.661Z,24.27
2018-12-09T07:04:40.606Z,24.63
2018-12-09T07:07:13.617Z,24.17
2018-12-09T07:09:46.111Z,26.00
2018-12-09T07:12:19.166Z,24.63
2018-12-09T07:14:51.963Z,26.23
2018-12-09T07:17:24.851Z,24.87
2018-12-09T07:19:57.664Z,28.23
2018-12-09T07:22:30.743Z,28.70
2018-12-09T07:25:03.545Z,30.27
2018-12-09T07:27:36.376Z,26.73
2018-12-09T07:30:10.222Z,27.33
2018-12-09T07:32:43.220Z,27.97
2018-12-09T07:35:15.677Z,25.10
2018-12-09T07:37:49.003Z,26.23
2018-12-09T07:40:21.813Z,26.83
2018-12-09T07:42:54.711Z,26.43
2018-12-09T07:45:28.035Z,26.13
2018-12-09T07:48:00.883Z,27.00
2018-12-09T07:50:33.766Z,24.77
2018-12-09T07:53:06.692Z,26.60
2018-12-09T07:55:39.585Z,23.30
2018-12-09T07:58:12.525Z,23.83
2018-12-09T08:00:45.507Z,28.10
2018-12-09T08:03:18.417Z,26.47
2018-12-09T08:05:51.207Z,28.60
2018-12-09T08:08:23.777Z,27.67
2018-12-09T08:10:56.308Z,26.97
2018-12-09T08:13:29.326Z,26.43
2018-12-09T08:16:01.680Z,25.15
2018-12-09T08:18:34.135Z,24.93
2018-12-09T08:21:06.656Z,23.13
2018-12-09T08:23:39.242Z,25.70
2018-12-09T08:26:11.682Z,26.83
2018-12-09T08:28:44.113Z,22.47
2018-12-09T08:31:16.574Z,24.47
2018-12-09T08:33:49.494Z,23.93
2018-12-09T08:36:22.231Z,25.77
2018-12-09T08:38:54.715Z,25.20
2018-12-09T08:41:27.118Z,28.83
2018-12-09T08:43:59.944Z,24.20
2018-12-09T08:46:32.292Z,27.50
2018-12-09T08:49:04.755Z,28.42
2018-12-09T08:51:37.590Z,23.13
2018-12-09T08:54:10.657Z,23.40
2018-12-09T08:56:43.537Z,23.77
2018-12-09T08:59:16.362Z,24.50
2018-12-09T09:01:49.227Z,26.70
2018-12-09T09:04:22.236Z,23.67
2018-12-09T09:06:54.749Z,26.27
2018-12-09T09:09:27.355Z,22.17
2018-12-09T09:12:00.349Z,24.23
2018-12-09T09:14:32.822Z,23.30
2018-12-09T09:17:05.828Z,27.03
2018-12-09T09:19:38.730Z,22.43
2018-12-09T09:22:11.692Z,25.07
2018-12-09T09:24:44.693Z,23.87
2018-12-09T09:27:17.532Z,27.07
2018-12-09T09:29:49.992Z,26.73
2018-12-09T09:32:22.765Z,25.87
2018-12-09T09:34:55.631Z,21.87
2018-12-09T09:37:28.437Z,23.33
2018-12-09T09:40:01.449Z,22.00
2018-12-09T09:42:33.929Z,26.77
2018-12-09T09:45:07.118Z,21.33
2018-12-09T09:47:40.067Z,20.17
2018-12-09T09:50:12.922Z,23.00
2018-12-09T09:52:45.744Z,22.93
2018-12-09T09:56:20.998Z,21.20
2018-12-09T09:58:53.703Z,20.03
2018-12-09T10:01:26.852Z,20.23
2018-12-09T10:03:59.727Z,20.83
2018-12-09T10:06:32.783Z,22.43
2018-12-09T10:09:07.176Z,20.37
2018-12-09T10:11:40.174Z,22.30
2018-12-09T10:14:12.610Z,21.03
2018-12-09T10:16:45.133Z,23.37
2018-12-09T10:19:17.697Z,24.67
2018-12-09T10:21:50.697Z,28.80
2018-12-09T10:24:23.598Z,27.90
2018-12-09T10:26:56.556Z,28.83
2018-12-09T10:29:29.563Z,22.67
2018-12-09T10:32:02.619Z,22.93
2018-12-09T10:34:38.737Z,24.67
2018-12-09T10:37:10.291Z,29.60
2018-12-09T10:39:42.981Z,24.63
2018-12-09T10:42:15.812Z,30.15
2018-12-09T10:44:50.782Z,24.50
2018-12-09T10:47:23.593Z,26.80
2018-12-09T10:49:56.306Z,25.60
2018-12-09T10:52:30.443Z,26.70
2018-12-09T10:55:03.270Z,25.93
2018-12-09T10:57:36.041Z,24.33
2018-12-09T11:00:11.157Z,27.37
2018-12-09T11:02:45.111Z,31.03
2018-12-09T11:05:17.885Z,36.70
2018-12-09T11:07:50.677Z,30.10
2018-12-09T11:10:23.681Z,26.40
2018-12-09T11:12:56.792Z,25.50
2018-12-09T11:15:29.660Z,27.97
2018-12-09T11:18:02.640Z,28.07
2018-12-09T11:20:37.654Z,25.63
2018-12-09T11:23:09.206Z,29.10
2018-12-09T11:25:42.003Z,27.03
2018-12-09T11:28:15.029Z,29.80
2018-12-09T11:30:47.893Z,24.83
2018-12-09T11:33:20.942Z,23.40
2018-12-09T11:35:53.821Z,25.30
2018-12-09T11:38:26.643Z,31.90
2018-12-09T11:40:59.754Z,27.67
2018-12-09T11:43:32.360Z,25.47
2018-12-09T11:46:04.910Z,26.07
2018-12-09T11:48:37.725Z,31.77
2018-12-09T11:51:10.686Z,29.40
2018-12-09T11:53:44.172Z,30.87
2018-12-09T11:56:17.042Z,27.23
2018-12-09T11:58:50.022Z,30.13
2018-12-09T12:01:22.374Z,25.97
2018-12-09T12:03:55.341Z,24.73
2018-12-09T12:06:28.738Z,27.10
2018-12-09T12:09:01.072Z,32.83
2018-12-09T12:11:34.808Z,34.47
2018-12-09T12:14:08.523Z,34.23
2018-12-09T12:16:41.587Z,30.87
2018-12-09T12:19:14.479Z,28.93
2018-12-09T12:21:46.778Z,29.40
2018-12-09T12:24:20.844Z,38.30
2018-12-09T12:26:53.327Z,31.70
2018-12-09T12:29:25.655Z,29.93
2018-12-09T12:31:58.350Z,35.57
2018-12-09T12:34:31.137Z,28.83
2018-12-09T12:37:03.827Z,36.30
2018-12-09T12:39:36.146Z,37.37
2018-12-09T12:42:08.396Z,37.07
2018-12-09T12:44:41.400Z,40.37
2018-12-09T12:47:13.781Z,64.70
2018-12-09T12:49:46.211Z,40.47
2018-12-09T12:52:19.192Z,39.67
2018-12-09T12:54:52.139Z,42.35
2018-12-09T12:57:24.854Z,41.97
2018-12-09T12:59:57.614Z,41.87
2018-12-09T13:02:30.562Z,46.23
2018-12-09T13:05:03.138Z,47.40
2018-12-09T13:14:35.747Z,42.50
2018-12-09T13:17:08.110Z,42.83
2018-12-09T13:19:40.357Z,42.03
2018-12-09T13:22:15.959Z,42.93
2018-12-09T13:24:48.287Z,35.17
2018-12-09T13:27:21.336Z,39.43
2018-12-09T13:29:53.642Z,45.03
2018-12-09T13:32:42.315Z,38.13
2018-12-09T13:35:17.408Z,50.07
2018-12-09T13:37:50.752Z,48.47
2018-12-09T13:40:23.700Z,41.03
2018-12-09T13:42:56.566Z,33.33
2018-12-09T13:45:29.550Z,31.17
2018-12-09T13:48:02.390Z,30.03
2018-12-09T13:50:34.754Z,31.07
2018-12-09T13:53:07.341Z,34.03
2018-12-09T13:55:40.055Z,24.73
2018-12-09T13:58:12.838Z,27.17
2018-12-09T14:00:45.699Z,34.33
2018-12-09T14:03:18.403Z,28.83
2018-12-09T14:05:51.111Z,28.97
2018-12-09T14:08:26.114Z,27.10
2018-12-09T14:11:03.271Z,29.77
2018-12-09T14:13:36.864Z,23.10
2018-12-09T14:16:09.681Z,25.27
2018-12-09T14:18:42.615Z,24.53
2018-12-09T14:21:15.284Z,21.45
2018-12-09T14:23:48.078Z,21.53
2018-12-09T14:26:21.028Z,19.27
2018-12-09T14:29:00.256Z,17.50
2018-12-09T14:31:34.194Z,23.57
2018-12-09T14:34:07.176Z,20.80
2018-12-09T14:36:45.604Z,19.50
2018-12-09T14:39:18.494Z,15.93
2018-12-09T14:41:52.913Z,17.87
2018-12-09T14:44:29.345Z,17.17
2018-12-09T14:47:02.399Z,20.33
2018-12-09T14:49:35.588Z,19.00
2018-12-09T14:52:08.922Z,18.67
2018-12-09T14:54:41.933Z,15.60
2018-12-09T14:57:14.996Z,18.83
2018-12-09T14:59:48.159Z,22.40
2018-12-09T15:02:20.846Z,25.47
2018-12-09T15:04:54.588Z,19.93
2018-12-09T15:07:27.081Z,18.60
2018-12-09T15:10:08.469Z,17.43
2018-12-09T15:12:35.878Z,17.20
2018-12-09T15:15:11.734Z,16.67
2018-12-09T15:17:44.514Z,15.37
2018-12-09T15:20:17.281Z,16.37
2018-12-09T15:22:50.322Z,16.47
2018-12-09T15:25:23.122Z,15.43
2018-12-09T15:27:55.850Z,18.20
2018-12-09T15:30:28.473Z,15.93
2018-12-09T15:33:01.279Z,11.07
2018-12-09T15:35:34.218Z,14.67
2018-12-09T15:38:07.324Z,18.07
2018-12-09T15:40:40.136Z,17.67
2018-12-09T15:43:12.966Z,17.97
2018-12-09T15:45:45.880Z,16.00
2018-12-09T15:48:18.623Z,13.57
2018-12-09T15:50:51.745Z,14.80
2018-12-09T15:53:25.068Z,14.17
2018-12-09T15:55:58.298Z,15.00
2018-12-09T15:58:31.231Z,13.50
2018-12-09T16:01:04.273Z,15.83
2018-12-09T16:03:36.800Z,15.80
2018-12-09T16:06:09.789Z,14.20
2018-12-09T16:08:42.792Z,15.97
2018-12-09T16:11:15.431Z,13.87
2018-12-09T16:13:48.411Z,13.63
2018-12-09T16:17:24.268Z,17.07
2018-12-09T16:19:57.280Z,13.53
2018-12-09T16:22:30.089Z,15.83
2018-12-09T16:25:05.409Z,14.50
2018-12-09T16:27:38.239Z,14.20
2018-12-09T16:30:11.743Z,10.57
2018-12-09T16:32:44.346Z,13.67
2018-12-09T16:35:17.477Z,11.63
2018-12-09T16:37:50.306Z,10.67
2018-12-09T16:40:23.143Z,9.93
2018-12-09T16:42:56.478Z,15.50
2018-12-09T16:45:32.786Z,12.53
2018-12-09T16:48:05.748Z,12.03
2018-12-09T16:50:38.822Z,12.03
2018-12-09T16:53:11.931Z,10.60
2018-12-09T16:55:44.690Z,11.40
2018-12-09T16:58:17.714Z,15.07
2018-12-09T17:00:50.488Z,10.33
2018-12-09T17:03:23.169Z,14.57
2018-12-09T17:05:55.781Z,10.53
2018-12-09T17:08:28.607Z,11.47
2018-12-09T17:11:01.245Z,12.20
2018-12-09T17:13:34.011Z,11.20
2018-12-09T17:16:07.072Z,11.63
2018-12-09T17:18:39.774Z,8.63
2018-12-09T17:21:12.355Z,10.33
2018-12-09T17:23:45.419Z,11.10
2018-12-09T17:26:18.067Z,10.60
2018-12-09T17:28:51.222Z,10.30
2018-12-09T17:31:23.915Z,13.47
2018-12-09T17:33:56.772Z,15.30
2018-12-09T17:37:32.139Z,14.00
2018-12-09T17:40:05.060Z,12.27
2018-12-09T17:42:37.735Z,11.60
2018-12-09T17:45:10.607Z,9.40
2018-12-09T17:47:43.937Z,7.87
2018-12-09T17:50:16.834Z,13.63
2018-12-09T17:52:49.548Z,9.00
2018-12-09T17:55:22.331Z,9.63
2018-12-09T17:57:55.068Z,17.10
2018-12-09T18:00:27.812Z,12.70
2018-12-09T18:03:18.285Z,13.00
2018-12-09T18:05:51.238Z,12.07
2018-12-09T18:08:23.972Z,14.00
2018-12-09T18:10:56.996Z,16.57
2018-12-09T18:13:29.838Z,12.73
2018-12-09T18:16:05.266Z,10.77
2018-12-09T18:18:38.137Z,13.60
2018-12-09T18:21:11.093Z,14.07
2018-12-09T18:23:43.356Z,12.40
2018-12-09T18:26:17.437Z,12.47
2018-12-09T18:28:50.529Z,12.67
2018-12-09T18:31:23.775Z,14.47
2018-12-09T18:33:56.431Z,10.98
2018-12-09T18:36:30.410Z,17.03
2018-12-09T18:39:05.034Z,11.43
2018-12-09T18:41:37.895Z,9.43
2018-12-09T18:44:10.822Z,10.93
2018-12-09T18:46:44.059Z,13.27
2018-12-09T18:49:16.827Z,11.17
2018-12-09T18:51:49.709Z,13.40
2018-12-09T18:54:22.490Z,9.53
2018-12-09T18:56:55.295Z,12.23
2018-12-09T18:59:27.835Z,9.20
2018-12-09T19:02:01.291Z,9.80
2018-12-09T19:04:33.947Z,14.33
2018-12-09T19:07:06.570Z,10.75
2018-12-09T19:09:39.776Z,11.07
2018-12-09T19:12:12.967Z,13.93
2018-12-09T19:14:45.698Z,14.23
2018-12-09T19:17:18.503Z,8.77
2018-12-09T19:19:51.038Z,16.57
2018-12-09T19:22:24.056Z,12.13
2018-12-09T19:25:02.058Z,11.20
2018-12-09T19:27:34.842Z,8.80
2018-12-09T19:30:07.491Z,9.47
2018-12-09T19:32:42.437Z,11.83
2018-12-09T19:35:15.188Z,9.87
2018-12-09T19:37:48.194Z,10.27
2018-12-09T19:40:21.035Z,8.37
2018-12-09T19:42:53.968Z,9.30
2018-12-09T19:52:27.006Z,11.50
2018-12-09T19:54:59.748Z,13.27
2018-12-09T19:57:32.263Z,10.13
2018-12-09T20:00:04.999Z,9.47
2018-12-09T20:02:37.895Z,10.48
2018-12-09T20:05:11.790Z,14.20
2018-12-09T20:07:44.652Z,13.10
2018-12-09T20:10:17.187Z,8.60
2018-12-09T20:12:50.060Z,11.77
2018-12-09T20:15:22.935Z,10.63
2018-12-09T20:17:56.180Z,14.20
2018-12-09T20:20:28.859Z,11.87
2018-12-09T20:23:01.403Z,9.50
2018-12-09T20:25:34.157Z,10.03
2018-12-09T20:28:06.791Z,10.67
2018-12-09T20:30:39.839Z,13.27
2018-12-09T20:33:13.188Z,11.57
2018-12-09T20:35:46.944Z,14.37
2018-12-09T20:38:19.529Z,7.97
2018-12-09T20:40:52.209Z,10.90
2018-12-09T20:43:24.982Z,13.60
2018-12-09T20:45:57.865Z,11.20
2018-12-09T20:48:30.757Z,9.40
2018-12-09T20:51:03.641Z,16.10
2018-12-09T20:53:36.359Z,10.73
2018-12-09T20:56:09.117Z,8.20
2018-12-09T20:58:41.790Z,13.73
2018-12-09T21:01:14.497Z,12.33
2018-12-09T21:03:47.361Z,11.93
2018-12-09T21:06:20.453Z,13.10
2018-12-09T21:08:53.045Z,8.77
2018-12-09T21:11:25.818Z,9.33
2018-12-09T21:13:58.382Z,12.03
2018-12-09T21:16:31.027Z,14.97
2018-12-09T21:19:03.549Z,9.53
2018-12-09T21:21:36.260Z,15.43
2018-12-09T21:24:09.007Z,8.50
2018-12-09T21:26:41.906Z,14.90
2018-12-09T21:29:15.073Z,12.57
2018-12-09T21:31:47.994Z,10.30
2018-12-09T21:34:20.536Z,17.97
2018-12-09T21:36:54.034Z,12.37
2018-12-09T21:39:26.829Z,13.87
2018-12-09T21:42:01.218Z,21.00
2018-12-09T21:44:34.641Z,13.28
2018-12-09T21:47:07.466Z,13.23
2018-12-09T21:49:40.980Z,15.00
2018-12-09T21:52:14.105Z,13.17
2018-12-09T21:54:46.866Z,15.03
2018-12-09T21:57:20.882Z,12.37
2018-12-09T21:59:53.611Z,31.90
2018-12-09T22:02:27.292Z,16.07
2018-12-09T22:05:01.395Z,14.23
2018-12-09T22:07:35.031Z,13.77
2018-12-09T22:10:08.196Z,21.03
2018-12-09T22:12:41.789Z,15.87
2018-12-09T22:15:14.410Z,13.53
2018-12-09T22:17:47.624Z,10.43
2018-12-09T22:20:20.253Z,14.03
2018-12-09T22:22:53.117Z,10.63
2018-12-09T22:25:25.814Z,13.97
2018-12-09T22:27:59.323Z,24.30
2018-12-09T22:30:32.663Z,14.68
2018-12-09T22:33:13.961Z,10.90
2018-12-09T22:35:46.467Z,12.57
2018-12-09T22:38:19.174Z,14.20
2018-12-09T22:40:51.473Z,12.47
2018-12-09T22:43:23.802Z,16.03
2018-12-09T22:45:56.206Z,15.93
2018-12-09T22:48:28.468Z,16.77
2018-12-09T22:51:01.792Z,19.27
2018-12-09T22:53:34.451Z,18.33
2018-12-09T22:56:07.805Z,18.17
2018-12-09T22:58:41.449Z,12.47
2018-12-09T23:01:22.419Z,13.67
2018-12-09T23:03:56.291Z,12.85
2018-12-09T23:06:29.000Z,11.63
2018-12-09T23:09:01.978Z,11.50
2018-12-09T23:11:35.312Z,13.43
2018-12-09T23:14:08.230Z,14.70
2018-12-09T23:16:40.903Z,13.50
2018-12-09T23:19:13.661Z,14.70
2018-12-09T23:21:46.332Z,12.30
2018-12-09T23:24:18.846Z,14.60
2018-12-09T23:26:51.376Z,14.77
2018-12-09T23:29:24.132Z,10.67
2018-12-09T23:31:56.872Z,12.67
2018-12-09T23:34:29.881Z,16.07
2018-12-09T23:37:02.644Z,13.60
2018-12-09T23:39:35.527Z,14.60
2018-12-09T23:42:08.313Z,14.60
2018-12-09T23:44:41.061Z,15.67
2018-12-09T23:47:13.694Z,13.87
2018-12-09T23:49:46.499Z,16.57
2018-12-09T23:52:19.071Z,14.50
2018-12-09T23:54:52.169Z,13.37
2018-12-09T23:57:24.873Z,15.07
2018-12-09T23:59:57.606Z,13.30
